KGUC

Gunnison-Crested Butte Regional Airport

Airport
ICAO code
KGUC
IATA Code
GUC
Summary
ICAO Region
NAM
ICAO Territory
Location

Gunnison, Colorado

Serving
Gunnison
Elevation
7680 ft
Coordinates
38° 32' 2" N , 106° 55' 58" W
KCC
Airport CFIT
Altimeter Temperature Error Correction
Airport RE
Hot and High Operations
Airport WX
Mountain Waves
Metar
KGUC 301456Z AUTO 00000KT 10SM CLR 09/M02 A3027 RMK AO2 SLP188 T00941022 50004

Gunnison–Crested Butte Regional Airport, also known as Gunnison County Airport, is a public airport located at the southern edge of Gunnison, Colorado, USA.

Gunnison is located at the bottom of several valleys. Due to its location, cold air in all the valleys settles into Gunnison at night, making it, in winter, one of the coldest places in the United States, especially when snowpack is present.

Airport map

Aerial View

SKYbrary Partners:

Safety knowledge contributed by: